Valle Di Nervion — IBPC — position and weather

sailwx.info

Track history (hours):
 
Tides and Currents Weather Stations Pressure Air Temp Water Temp Dewpoint Dewpoint Depression Visibility Wind Speed Wind Dir Waves Ship Positions

Valle Di Nervion

Last reported at 2015-Jan-22 16:33 UTC. Time now 2015-Feb-01 18:16 UTC.
Position N 36°49' E 013°47'.
Warning: this ship's position is 10 days out of date.

Length 176 m; draft 8.9 m.

Type: Ship (hazmat cat D). MMSI: 247109500.

Date/timePositionNaut miles runAvg speedWind from/ knotsBaromVisibWave heightAir tempDewpointWater temp
2015-Jan-22 16:33N 36°49' E 013°47'8 7.7
2015-Jan-22 15:34N 36°45' E 013°55'1211.9
2015-Jan-22 14:34N 36°43' E 014°10'1212.4
2015-Jan-22 13:33N 36°41' E 014°25'1311.9
2015-Jan-22 12:26N 36°38' E 014°42'1111.2
2015-Jan-22 11:29N 36°36' E 014°55'1612.3
2015-Jan-22 10:12N 36°34' E 015°14'53510.5
2015-Jan-20 07:29N 39°52' E 025°47'17710.8
2015-Jan-19 15:07N 41°19' E 029°09'5 9.2
2015-Jan-19 14:32N 41°22' E 029°16'1010.6
2015-Jan-19 13:34N 41°24' E 029°29'3 3.2
2015-Jan-19 12:34N 41°24' E 029°34'1 1.5
2015-Jan-19 11:34N 41°24' E 029°32'1 1.2
2015-Jan-19 10:34N 41°23' E 029°30'1 0.9
2015-Jan-19 09:33N 41°23' E 029°29'1 0.9
2015-Jan-19 08:34N 41°23' E 029°28'2 1.9
2015-Jan-19 07:34N 41°23' E 029°25'1 0.8
2015-Jan-19 06:32N 41°24' E 029°26'9 8.8
2015-Jan-19 05:34N 41°31' E 029°33'5 0.6
2015-Jan-18 22:31N 41°27' E 029°29'1 1.0
2015-Jan-18 21:31N 41°27' E 029°28'1 1.0
2015-Jan-18 20:31N 41°26' E 029°27'1 0.9
2015-Jan-18 19:31N 41°26' E 029°26'1 0.8
2015-Jan-18 18:31N 41°25' E 029°25'1 0.7
2015-Jan-18 17:31N 41°25' E 029°24'1 0.8
2015-Jan-18 16:31N 41°25' E 029°23'1 0.8
2015-Jan-18 15:33N 41°24' E 029°22'1 0.9
2015-Jan-18 14:33N 41°24' E 029°21'1 0.9
2015-Jan-18 13:33N 41°24' E 029°20'1 0.5
2015-Jan-18 12:33N 41°25' E 029°19'8 7.5
2015-Jan-18 11:33N 41°27' E 029°29'5 5.2
2015-Jan-18 10:33N 41°29' E 029°35'1 1.1
2015-Jan-18 09:33N 41°29' E 029°34'1 1.1
2015-Jan-18 08:33N 41°28' E 029°32'1 1.2
2015-Jan-18 07:33N 41°28' E 029°31'1 1.1
2015-Jan-18 06:33N 41°27' E 029°30'1 1.0
2015-Jan-18 05:33N 41°27' E 029°29'1 0.9
2015-Jan-18 04:33N 41°26' E 029°27'4 0.7
2015-Jan-17 22:33N 41°24' E 029°23'1 1.1
2015-Jan-17 21:33N 41°25' E 029°22'8 8.0
2015-Jan-17 20:33N 41°32' E 029°25'1 0.6
2015-Jan-17 19:33N 41°32' E 029°25'1 0.7
2015-Jan-17 18:33N 41°31' E 029°24'1 0.7
2015-Jan-17 17:33N 41°31' E 029°24'1 0.6
2015-Jan-17 16:33N 41°31' E 029°23'1 0.6
2015-Jan-17 15:33N 41°30' E 029°22'1 0.6
2015-Jan-17 14:33N 41°30' E 029°22'0 0.5
2015-Jan-17 13:33N 41°29' E 029°22'1 0.4
2015-Jan-17 11:13N 41°29' E 029°21'2 3.4
2015-Jan-17 10:31N 41°28' E 029°24'39812.4
2015-Jan-16 02:25N 44°27' E 037°28'1213.1
2015-Jan-16 01:32N 44°33' E 037°42'10 9.8
2015-Jan-16 00:33N 44°41' E 037°50'2 1.6
2015-Jan-15 23:33N 44°43' E 037°50'0 0.0
2015-Jan-15 22:33N 44°43' E 037°50'0 0.0
2015-Jan-15 21:33N 44°43' E 037°50'0 0.0
2015-Jan-15 20:33N 44°43' E 037°50'0 0.0
2015-Jan-15 19:33N 44°43' E 037°50'0 0.0
2015-Jan-15 18:33N 44°43' E 037°50'0 0.0
2015-Jan-15 17:33N 44°43' E 037°50'0 0.0
2015-Jan-15 16:33N 44°43' E 037°50'0 0.0
2015-Jan-15 15:33N 44°43' E 037°50'0 0.0
2015-Jan-15 14:33N 44°43' E 037°50'0 0.0
2015-Jan-15 13:33N 44°43' E 037°50'0 0.0
2015-Jan-15 12:33N 44°43' E 037°50'0 0.0
2015-Jan-15 11:33N 44°43' E 037°50'0 0.0
2015-Jan-15 10:33N 44°43' E 037°50'0 0.0
2015-Jan-15 09:33N 44°43' E 037°50'0 0.0
2015-Jan-15 08:33N 44°43' E 037°50'0 0.0
2015-Jan-15 07:33N 44°43' E 037°50'0 0.0
2015-Jan-15 06:33N 44°43' E 037°50'0 0.0
2015-Jan-15 05:33N 44°43' E 037°50'0 0.0
2015-Jan-15 04:33N 44°43' E 037°50'0 0.0
2015-Jan-15 03:33N 44°43' E 037°50'0 0.0
2015-Jan-15 02:32N 44°43' E 037°50'0 0.0
2015-Jan-15 01:32N 44°43' E 037°50'0 0.0
2015-Jan-15 00:32N 44°43' E 037°50'0 0.0
2015-Jan-14 23:32N 44°43' E 037°50'0 0.0
2015-Jan-14 22:32N 44°43' E 037°50'0 0.0
2015-Jan-14 21:32N 44°43' E 037°50'0 0.0
2015-Jan-14 20:32N 44°43' E 037°50'0 0.0
2015-Jan-14 19:32N 44°43' E 037°50'0 0.0
2015-Jan-14 18:32N 44°43' E 037°50'0 0.0
2015-Jan-14 17:32N 44°43' E 037°50'0 0.0
2015-Jan-14 16:32N 44°43' E 037°50'0 0.0
2015-Jan-14 15:32N 44°43' E 037°50'0 0.0
2015-Jan-14 14:32N 44°43' E 037°50'2 1.6
2015-Jan-14 13:33N 44°41' E 037°50'7 7.3
2015-Jan-14 12:33N 44°34' E 037°52'5 4.8
2015-Jan-14 11:32N 44°29' E 037°52'0 0.1
2015-Jan-14 10:32N 44°29' E 037°52'0 0.0
2015-Jan-14 09:32N 44°29' E 037°52'0 0.1
2015-Jan-14 08:32N 44°29' E 037°52'0 0.1
2015-Jan-14 07:31N 44°29' E 037°52'0 0.3
2015-Jan-14 06:31N 44°28' E 037°52'0 0.4
2015-Jan-14 05:31N 44°28' E 037°53'1 0.6
2015-Jan-14 04:31N 44°28' E 037°53'3 3.0
2015-Jan-14 03:33N 44°30' E 037°52'1 1.3
2015-Jan-14 02:32N 44°31' E 037°51'1 0.6
2015-Jan-14 01:29N 44°31' E 037°52'0 0.5
2015-Jan-14 00:32N 44°31' E 037°52'0 0.4
2015-Jan-13 23:32N 44°30' E 037°52'1 0.5
2015-Jan-13 22:32N 44°30' E 037°52'1 0.7
2015-Jan-13 21:32N 44°29' E 037°52'1 0.8
2015-Jan-13 20:32N 44°28' E 037°52'1 0.7
2015-Jan-13 19:29N 44°27' E 037°52'1 0.6
2015-Jan-13 18:33N 44°28' E 037°51'6 5.7
2015-Jan-13 17:33N 44°30' E 037°44'0 0.3
2015-Jan-13 16:34N 44°30' E 037°44'1 0.6
2015-Jan-13 15:34N 44°30' E 037°45'1 0.6
2015-Jan-13 14:33N 44°30' E 037°46'0 0.5
2015-Jan-13 13:33N 44°29' E 037°46'0 0.5
2015-Jan-13 12:33N 44°29' E 037°47'0 0.5
2015-Jan-13 11:33N 44°29' E 037°47'0 0.5
2015-Jan-13 10:33N 44°28' E 037°47'0 0.5
2015-Jan-13 09:30N 44°28' E 037°48'0 0.4
2015-Jan-13 08:27N 44°27' E 037°48'0 0.3
2015-Jan-13 07:30N 44°27' E 037°48'1 1.1
2015-Jan-13 06:33N 44°28' E 037°49'3 2.7
2015-Jan-13 05:33N 44°31' E 037°49'1 1.1
2015-Jan-13 04:27N 44°30' E 037°50'1 0.8
2015-Jan-13 03:33N 44°29' E 037°50'3 3.0
2015-Jan-13 02:34N 44°32' E 037°51'0 0.5
2015-Jan-13 01:32N 44°31' E 037°51'1 0.8
2015-Jan-13 00:32N 44°31' E 037°51'1 0.5
2015-Jan-12 23:29N 44°30' E 037°51'0 0.5
2015-Jan-12 22:29N 44°30' E 037°51'0 0.3
2015-Jan-12 21:32N 44°29' E 037°51'5 5.4
2015-Jan-12 20:33N 44°31' E 037°44'1 1.0
2015-Jan-12 19:33N 44°31' E 037°43'1 0.9
2015-Jan-12 18:33N 44°31' E 037°44'1 1.3
2015-Jan-12 17:33N 44°30' E 037°46'1 0.8
2015-Jan-12 16:33N 44°30' E 037°45'  
Track history (hours):
 
Tides and Currents Weather Stations Pressure Air Temp Water Temp Dewpoint Dewpoint Depression Visibility Wind Speed Wind Dir Waves Ship Positions

Valle Di Nervion

Last reported at 2015-Jan-22 16:33 UTC. Time now 2015-Feb-01 18:16 UTC.
Position N 36°49' E 013°47'.
Warning: this ship's position is 10 days out of date.

Length 176 m; draft 8.9 m.

Type: Ship (hazmat cat D). MMSI: 247109500.

Date/timePositionNaut miles runAvg speedWind from/ knotsBaromVisibWave heightAir tempDewpointWater temp
2015-Jan-22 16:33N 36°49' E 013°47'8 7.7
2015-Jan-22 15:34N 36°45' E 013°55'1211.9
2015-Jan-22 14:34N 36°43' E 014°10'1212.4
2015-Jan-22 13:33N 36°41' E 014°25'1311.9
2015-Jan-22 12:26N 36°38' E 014°42'1111.2
2015-Jan-22 11:29N 36°36' E 014°55'1612.3
2015-Jan-22 10:12N 36°34' E 015°14'53510.5
2015-Jan-20 07:29N 39°52' E 025°47'17710.8
2015-Jan-19 15:07N 41°19' E 029°09'5 9.2
2015-Jan-19 14:32N 41°22' E 029°16'1010.6
2015-Jan-19 13:34N 41°24' E 029°29'3 3.2
2015-Jan-19 12:34N 41°24' E 029°34'1 1.5
2015-Jan-19 11:34N 41°24' E 029°32'1 1.2
2015-Jan-19 10:34N 41°23' E 029°30'1 0.9
2015-Jan-19 09:33N 41°23' E 029°29'1 0.9
2015-Jan-19 08:34N 41°23' E 029°28'2 1.9
2015-Jan-19 07:34N 41°23' E 029°25'1 0.8
2015-Jan-19 06:32N 41°24' E 029°26'9 8.8
2015-Jan-19 05:34N 41°31' E 029°33'5 0.6
2015-Jan-18 22:31N 41°27' E 029°29'1 1.0
2015-Jan-18 21:31N 41°27' E 029°28'1 1.0
2015-Jan-18 20:31N 41°26' E 029°27'1 0.9
2015-Jan-18 19:31N 41°26' E 029°26'1 0.8
2015-Jan-18 18:31N 41°25' E 029°25'1 0.7
2015-Jan-18 17:31N 41°25' E 029°24'1 0.8
2015-Jan-18 16:31N 41°25' E 029°23'1 0.8
2015-Jan-18 15:33N 41°24' E 029°22'1 0.9
2015-Jan-18 14:33N 41°24' E 029°21'1 0.9
2015-Jan-18 13:33N 41°24' E 029°20'1 0.5
2015-Jan-18 12:33N 41°25' E 029°19'8 7.5
2015-Jan-18 11:33N 41°27' E 029°29'5 5.2
2015-Jan-18 10:33N 41°29' E 029°35'1 1.1
2015-Jan-18 09:33N 41°29' E 029°34'1 1.1
2015-Jan-18 08:33N 41°28' E 029°32'1 1.2
2015-Jan-18 07:33N 41°28' E 029°31'1 1.1
2015-Jan-18 06:33N 41°27' E 029°30'1 1.0
2015-Jan-18 05:33N 41°27' E 029°29'1 0.9
2015-Jan-18 04:33N 41°26' E 029°27'4 0.7
2015-Jan-17 22:33N 41°24' E 029°23'1 1.1
2015-Jan-17 21:33N 41°25' E 029°22'8 8.0
2015-Jan-17 20:33N 41°32' E 029°25'1 0.6
2015-Jan-17 19:33N 41°32' E 029°25'1 0.7
2015-Jan-17 18:33N 41°31' E 029°24'1 0.7
2015-Jan-17 17:33N 41°31' E 029°24'1 0.6
2015-Jan-17 16:33N 41°31' E 029°23'1 0.6
2015-Jan-17 15:33N 41°30' E 029°22'1 0.6
2015-Jan-17 14:33N 41°30' E 029°22'0 0.5
2015-Jan-17 13:33N 41°29' E 029°22'1 0.4
2015-Jan-17 11:13N 41°29' E 029°21'2 3.4
2015-Jan-17 10:31N 41°28' E 029°24'39812.4
2015-Jan-16 02:25N 44°27' E 037°28'1213.1
2015-Jan-16 01:32N 44°33' E 037°42'10 9.8
2015-Jan-16 00:33N 44°41' E 037°50'2 1.6
2015-Jan-15 23:33N 44°43' E 037°50'0 0.0
2015-Jan-15 22:33N 44°43' E 037°50'0 0.0
2015-Jan-15 21:33N 44°43' E 037°50'0 0.0
2015-Jan-15 20:33N 44°43' E 037°50'0 0.0
2015-Jan-15 19:33N 44°43' E 037°50'0 0.0
2015-Jan-15 18:33N 44°43' E 037°50'0 0.0
2015-Jan-15 17:33N 44°43' E 037°50'0 0.0
2015-Jan-15 16:33N 44°43' E 037°50'0 0.0
2015-Jan-15 15:33N 44°43' E 037°50'0 0.0
2015-Jan-15 14:33N 44°43' E 037°50'0 0.0
2015-Jan-15 13:33N 44°43' E 037°50'0 0.0
2015-Jan-15 12:33N 44°43' E 037°50'0 0.0
2015-Jan-15 11:33N 44°43' E 037°50'0 0.0
2015-Jan-15 10:33N 44°43' E 037°50'0 0.0
2015-Jan-15 09:33N 44°43' E 037°50'0 0.0
2015-Jan-15 08:33N 44°43' E 037°50'0 0.0
2015-Jan-15 07:33N 44°43' E 037°50'0 0.0
2015-Jan-15 06:33N 44°43' E 037°50'0 0.0
2015-Jan-15 05:33N 44°43' E 037°50'0 0.0
2015-Jan-15 04:33N 44°43' E 037°50'0 0.0
2015-Jan-15 03:33N 44°43' E 037°50'0 0.0
2015-Jan-15 02:32N 44°43' E 037°50'0 0.0
2015-Jan-15 01:32N 44°43' E 037°50'0 0.0
2015-Jan-15 00:32N 44°43' E 037°50'0 0.0
2015-Jan-14 23:32N 44°43' E 037°50'0 0.0
2015-Jan-14 22:32N 44°43' E 037°50'0 0.0
2015-Jan-14 21:32N 44°43' E 037°50'0 0.0
2015-Jan-14 20:32N 44°43' E 037°50'0 0.0
2015-Jan-14 19:32N 44°43' E 037°50'0 0.0
2015-Jan-14 18:32N 44°43' E 037°50'0 0.0
2015-Jan-14 17:32N 44°43' E 037°50'0 0.0
2015-Jan-14 16:32N 44°43' E 037°50'0 0.0
2015-Jan-14 15:32N 44°43' E 037°50'0 0.0
2015-Jan-14 14:32N 44°43' E 037°50'2 1.6
2015-Jan-14 13:33N 44°41' E 037°50'7 7.3
2015-Jan-14 12:33N 44°34' E 037°52'5 4.8
2015-Jan-14 11:32N 44°29' E 037°52'0 0.1
2015-Jan-14 10:32N 44°29' E 037°52'0 0.0
2015-Jan-14 09:32N 44°29' E 037°52'0 0.1
2015-Jan-14 08:32N 44°29' E 037°52'0 0.1
2015-Jan-14 07:31N 44°29' E 037°52'0 0.3
2015-Jan-14 06:31N 44°28' E 037°52'0 0.4
2015-Jan-14 05:31N 44°28' E 037°53'1 0.6
2015-Jan-14 04:31N 44°28' E 037°53'3 3.0
2015-Jan-14 03:33N 44°30' E 037°52'1 1.3
2015-Jan-14 02:32N 44°31' E 037°51'1 0.6
2015-Jan-14 01:29N 44°31' E 037°52'0 0.5
2015-Jan-14 00:32N 44°31' E 037°52'0 0.4
2015-Jan-13 23:32N 44°30' E 037°52'1 0.5
2015-Jan-13 22:32N 44°30' E 037°52'1 0.7
2015-Jan-13 21:32N 44°29' E 037°52'1 0.8
2015-Jan-13 20:32N 44°28' E 037°52'1 0.7
2015-Jan-13 19:29N 44°27' E 037°52'1 0.6
2015-Jan-13 18:33N 44°28' E 037°51'6 5.7
2015-Jan-13 17:33N 44°30' E 037°44'0 0.3
2015-Jan-13 16:34N 44°30' E 037°44'1 0.6
2015-Jan-13 15:34N 44°30' E 037°45'1 0.6
2015-Jan-13 14:33N 44°30' E 037°46'0 0.5
2015-Jan-13 13:33N 44°29' E 037°46'0 0.5
2015-Jan-13 12:33N 44°29' E 037°47'0 0.5
2015-Jan-13 11:33N 44°29' E 037°47'0 0.5
2015-Jan-13 10:33N 44°28' E 037°47'0 0.5
2015-Jan-13 09:30N 44°28' E 037°48'0 0.4
2015-Jan-13 08:27N 44°27' E 037°48'0 0.3
2015-Jan-13 07:30N 44°27' E 037°48'1 1.1
2015-Jan-13 06:33N 44°28' E 037°49'3 2.7
2015-Jan-13 05:33N 44°31' E 037°49'1 1.1
2015-Jan-13 04:27N 44°30' E 037°50'1 0.8
2015-Jan-13 03:33N 44°29' E 037°50'3 3.0
2015-Jan-13 02:34N 44°32' E 037°51'0 0.5
2015-Jan-13 01:32N 44°31' E 037°51'1 0.8
2015-Jan-13 00:32N 44°31' E 037°51'1 0.5
2015-Jan-12 23:29N 44°30' E 037°51'0 0.5
2015-Jan-12 22:29N 44°30' E 037°51'0 0.3
2015-Jan-12 21:32N 44°29' E 037°51'5 5.4
2015-Jan-12 20:33N 44°31' E 037°44'1 1.0
2015-Jan-12 19:33N 44°31' E 037°43'1 0.9
2015-Jan-12 18:33N 44°31' E 037°44'1 1.3
2015-Jan-12 17:33N 44°30' E 037°46'1 0.8
2015-Jan-12 16:33N 44°30' E 037°45'  

Dump ship's entire track history